createdAt,value
2016-12-18T00:00:07.913Z,3.12
2016-12-18T00:01:07.646Z,3.11
2016-12-18T00:02:08.331Z,3.20
2016-12-18T00:03:08.181Z,3.09
2016-12-18T00:04:08.708Z,3.23
2016-12-18T00:05:07.626Z,3.13
2016-12-18T00:06:07.253Z,3.08
2016-12-18T00:07:08.221Z,2.91
2016-12-18T00:08:08.259Z,2.91
2016-12-18T00:09:07.880Z,2.96
2016-12-18T00:10:08.320Z,3.03
2016-12-18T00:11:07.856Z,3.17
2016-12-18T00:12:10.627Z,3.15
2016-12-18T00:13:08.281Z,3.16
2016-12-18T00:14:07.834Z,3.21
2016-12-18T00:15:07.839Z,3.15
2016-12-18T00:16:07.679Z,3.19
2016-12-18T00:17:07.669Z,3.23
2016-12-18T00:18:08.369Z,3.15
2016-12-18T00:19:08.097Z,3.29
2016-12-18T00:20:08.252Z,3.20
2016-12-18T00:21:07.909Z,3.19
2016-12-18T00:22:08.088Z,3.01
2016-12-18T00:23:07.957Z,3.16
2016-12-18T00:24:07.551Z,3.07
2016-12-18T00:25:07.647Z,3.11
2016-12-18T00:26:07.638Z,3.14
2016-12-18T00:27:07.608Z,3.08
2016-12-18T00:28:07.526Z,3.07
2016-12-18T00:29:08.439Z,3.28
2016-12-18T00:30:09.333Z,3.14
2016-12-18T00:31:08.139Z,2.98
2016-12-18T00:32:08.000Z,3.03
2016-12-18T00:33:07.879Z,3.01
2016-12-18T00:34:07.386Z,2.97
2016-12-18T00:35:08.633Z,3.00
2016-12-18T00:36:07.307Z,3.19
2016-12-18T00:37:08.388Z,3.08
2016-12-18T00:38:08.284Z,3.28
2016-12-18T00:39:08.128Z,3.05
2016-12-18T00:40:08.037Z,3.07
2016-12-18T00:41:08.085Z,2.95
2016-12-18T00:42:08.001Z,3.00
2016-12-18T00:43:09.386Z,3.11
2016-12-18T00:44:07.949Z,3.17
2016-12-18T00:45:08.216Z,3.27
2016-12-18T00:46:08.098Z,3.28
2016-12-18T00:47:08.023Z,3.33
2016-12-18T00:48:07.947Z,3.35
2016-12-18T00:49:07.841Z,3.24
2016-12-18T00:50:07.654Z,3.16
2016-12-18T00:51:07.701Z,3.20
2016-12-18T00:52:07.710Z,3.13
2016-12-18T00:53:07.532Z,3.14
2016-12-18T00:54:07.493Z,3.09
2016-12-18T00:55:08.050Z,3.15
2016-12-18T00:56:08.009Z,3.25
2016-12-18T00:57:07.912Z,3.12
2016-12-18T00:58:07.775Z,3.07
2016-12-18T00:59:07.667Z,3.21
2016-12-18T01:00:07.741Z,2.98
2016-12-18T01:01:07.781Z,2.96
2016-12-18T01:02:07.764Z,2.90
2016-12-18T01:03:07.244Z,3.04
2016-12-18T01:04:07.499Z,3.22
2016-12-18T01:05:08.217Z,3.29
2016-12-18T01:06:08.240Z,3.16
2016-12-18T01:07:09.081Z,3.29
2016-12-18T01:08:07.895Z,3.21
2016-12-18T01:09:07.790Z,3.23
2016-12-18T01:10:07.623Z,3.23
2016-12-18T01:11:07.419Z,3.19
2016-12-18T01:12:08.401Z,3.09
2016-12-18T01:13:08.284Z,3.11
2016-12-18T01:14:08.220Z,3.18
2016-12-18T01:15:08.090Z,3.30
2016-12-18T01:16:07.958Z,3.41
2016-12-18T01:17:07.952Z,3.42
2016-12-18T01:18:07.572Z,3.42
2016-12-18T01:19:07.427Z,3.51
2016-12-18T01:20:08.057Z,3.50
2016-12-18T01:21:07.930Z,3.39
2016-12-18T01:22:07.525Z,3.40
2016-12-18T01:23:08.316Z,3.43
2016-12-18T01:24:08.193Z,3.53
2016-12-18T01:25:08.024Z,3.38
2016-12-18T01:26:07.811Z,3.45
2016-12-18T01:27:07.307Z,3.23
2016-12-18T01:28:08.107Z,3.20
2016-12-18T01:29:08.225Z,3.28
2016-12-18T01:30:08.093Z,3.36
2016-12-18T01:31:07.710Z,3.46
2016-12-18T01:32:07.953Z,3.32
2016-12-18T01:33:07.648Z,3.28
2016-12-18T01:34:07.919Z,3.25
2016-12-18T01:35:07.809Z,3.37
2016-12-18T01:36:07.693Z,3.30
2016-12-18T01:37:07.402Z,3.38
2016-12-18T01:38:07.581Z,3.38
2016-12-18T01:39:08.428Z,3.33
2016-12-18T01:40:08.279Z,3.23
2016-12-18T01:41:07.831Z,3.17
2016-12-18T01:42:07.752Z,3.27
2016-12-18T01:43:07.302Z,3.34
2016-12-18T01:44:08.200Z,3.27
2016-12-18T01:45:07.902Z,3.29
2016-12-18T01:46:07.776Z,3.06
2016-12-18T01:47:07.619Z,3.18
2016-12-18T01:48:07.410Z,3.39
2016-12-18T01:49:08.328Z,3.32
2016-12-18T01:50:07.782Z,3.09
2016-12-18T01:51:08.309Z,3.05
2016-12-18T01:52:07.806Z,3.02
2016-12-18T01:53:08.211Z,3.08
2016-12-18T01:54:08.005Z,3.04
2016-12-18T01:55:07.947Z,3.05
2016-12-18T01:56:07.599Z,3.24
2016-12-18T01:57:08.232Z,3.16
2016-12-18T01:58:08.172Z,3.07
2016-12-18T01:59:08.102Z,3.05
2016-12-18T02:00:07.972Z,3.07
2016-12-18T02:01:07.611Z,3.06
2016-12-18T02:02:07.545Z,3.10
2016-12-18T02:03:07.524Z,3.09
2016-12-18T02:04:07.807Z,3.22
2016-12-18T02:05:07.571Z,3.25
2016-12-18T02:06:08.339Z,3.14
2016-12-18T02:07:07.887Z,3.12
2016-12-18T02:08:08.298Z,3.20
2016-12-18T02:09:08.192Z,3.30
2016-12-18T02:10:07.925Z,3.41
2016-12-18T02:11:07.920Z,3.38
2016-12-18T02:12:07.392Z,3.42
2016-12-18T02:13:07.580Z,3.38
2016-12-18T02:14:07.727Z,3.38
2016-12-18T02:15:07.631Z,3.39
2016-12-18T02:16:07.241Z,3.33
2016-12-18T02:17:08.588Z,3.27
2016-12-18T02:18:07.423Z,3.48
2016-12-18T02:19:08.202Z,3.59
2016-12-18T02:20:08.082Z,3.36
2016-12-18T02:21:08.066Z,3.41
2016-12-18T02:22:07.946Z,3.45
2016-12-18T02:23:07.652Z,3.37
2016-12-18T02:24:07.765Z,3.41
2016-12-18T02:25:07.722Z,3.35
2016-12-18T02:26:07.596Z,3.43
2016-12-18T02:27:07.128Z,3.39
2016-12-18T02:28:08.181Z,3.39
2016-12-18T02:29:07.747Z,3.40
2016-12-18T02:30:07.978Z,3.48
2016-12-18T02:31:07.904Z,3.42
2016-12-18T02:32:07.686Z,3.37
2016-12-18T02:33:07.682Z,3.45
2016-12-18T02:34:07.637Z,3.30
2016-12-18T02:35:07.725Z,3.32
2016-12-18T02:36:07.561Z,3.18
2016-12-18T02:37:07.295Z,3.02
2016-12-18T02:38:08.270Z,3.16
2016-12-18T02:39:08.147Z,3.01
2016-12-18T02:40:08.194Z,3.02
2016-12-18T02:41:08.964Z,3.10
2016-12-18T02:42:07.740Z,3.15
2016-12-18T02:43:07.716Z,3.03
2016-12-18T02:44:07.720Z,3.19
2016-12-18T02:45:07.659Z,2.99
2016-12-18T02:46:07.488Z,3.18
2016-12-18T02:47:08.287Z,3.16
2016-12-18T02:48:07.780Z,3.04
2016-12-18T02:49:07.828Z,3.03
2016-12-18T02:50:07.685Z,3.23
2016-12-18T02:51:07.768Z,3.22
2016-12-18T02:52:07.666Z,3.21
2016-12-18T02:53:07.378Z,3.15
2016-12-18T02:54:08.029Z,3.15
2016-12-18T02:55:07.873Z,2.99
2016-12-18T02:56:07.747Z,3.01
2016-12-18T02:57:07.754Z,3.07
2016-12-18T02:58:07.511Z,3.11
2016-12-18T02:59:07.503Z,3.11
2016-12-18T03:00:08.143Z,3.02
2016-12-18T03:01:08.171Z,2.92
2016-12-18T03:02:07.820Z,2.96
2016-12-18T03:03:07.785Z,2.97
2016-12-18T03:04:07.794Z,3.05
2016-12-18T03:05:07.767Z,2.94
2016-12-18T03:06:07.718Z,3.02
2016-12-18T03:07:07.725Z,2.96
2016-12-18T03:08:07.739Z,3.01
2016-12-18T03:09:07.248Z,3.05
2016-12-18T03:10:07.447Z,2.88
2016-12-18T03:11:07.965Z,2.75
2016-12-18T03:12:07.714Z,2.68
2016-12-18T03:13:07.540Z,2.82
2016-12-18T03:14:08.342Z,2.88
2016-12-18T03:15:08.028Z,2.78
2016-12-18T03:16:09.148Z,2.76
2016-12-18T03:17:08.108Z,2.81
2016-12-18T03:18:08.187Z,2.85
2016-12-18T03:19:07.937Z,2.87
2016-12-18T03:20:07.611Z,3.00
2016-12-18T03:21:07.197Z,2.80
2016-12-18T03:22:07.353Z,2.94
2016-12-18T03:23:08.296Z,2.90
2016-12-18T03:24:07.817Z,2.93
2016-12-18T03:25:07.878Z,2.97
2016-12-18T03:26:08.645Z,2.77
2016-12-18T03:27:07.854Z,2.80
2016-12-18T03:28:07.509Z,2.89
2016-12-18T03:29:07.564Z,2.97
2016-12-18T03:30:08.772Z,2.88
2016-12-18T03:31:07.562Z,2.79
2016-12-18T03:32:07.575Z,2.85
2016-12-18T03:33:07.949Z,2.88
2016-12-18T03:34:07.559Z,2.80
2016-12-18T03:35:07.961Z,2.68
2016-12-18T03:36:07.849Z,2.83
2016-12-18T03:37:07.593Z,2.89
2016-12-18T03:38:07.518Z,2.88
2016-12-18T03:39:08.108Z,2.76
2016-12-18T03:40:07.999Z,2.71
2016-12-18T03:41:07.862Z,2.67
2016-12-18T03:42:07.867Z,2.71
2016-12-18T03:43:07.558Z,2.80
2016-12-18T03:44:07.485Z,2.82
2016-12-18T03:45:07.968Z,2.75
2016-12-18T03:46:08.120Z,2.74
2016-12-18T03:47:08.055Z,2.81
2016-12-18T03:48:07.965Z,2.63
2016-12-18T03:49:07.552Z,2.57
2016-12-18T03:50:08.127Z,2.63
2016-12-18T03:51:07.948Z,2.64
2016-12-18T03:52:07.836Z,2.65
2016-12-18T03:53:07.773Z,2.71
2016-12-18T03:54:08.230Z,2.63
2016-12-18T03:55:07.969Z,2.62
2016-12-18T03:56:07.617Z,2.63
2016-12-18T03:57:07.583Z,2.59
2016-12-18T03:58:08.323Z,2.60
2016-12-18T03:59:07.996Z,2.70
2016-12-18T04:00:07.748Z,2.71
2016-12-18T04:01:07.624Z,2.74
2016-12-18T04:02:07.487Z,2.76
2016-12-18T04:03:08.384Z,2.72
2016-12-18T04:04:08.236Z,2.44
2016-12-18T04:05:08.157Z,2.46
2016-12-18T04:06:08.172Z,2.63
2016-12-18T04:07:08.117Z,2.58
2016-12-18T04:08:07.699Z,2.48
2016-12-18T04:09:08.123Z,2.59
2016-12-18T04:10:07.952Z,2.57
2016-12-18T04:11:07.806Z,2.63
2016-12-18T04:12:08.358Z,2.62
2016-12-18T04:13:08.237Z,2.70
2016-12-18T04:14:08.137Z,2.67
2016-12-18T04:15:08.063Z,2.52
2016-12-18T04:16:08.016Z,2.46
2016-12-18T04:17:07.688Z,2.40
2016-12-18T04:18:07.206Z,2.48
2016-12-18T04:19:07.980Z,2.59
2016-12-18T04:20:08.214Z,2.52
2016-12-18T04:21:08.094Z,2.67
2016-12-18T04:22:07.834Z,2.51
2016-12-18T04:23:07.595Z,2.43
2016-12-18T04:24:08.180Z,2.48
2016-12-18T04:25:08.024Z,2.63
2016-12-18T04:26:07.850Z,2.53
2016-12-18T04:27:07.827Z,2.74
2016-12-18T04:28:07.844Z,2.71
2016-12-18T04:29:07.843Z,2.69
2016-12-18T04:30:07.665Z,2.59
2016-12-18T04:31:07.742Z,2.61
2016-12-18T04:32:07.936Z,2.70
2016-12-18T04:33:07.580Z,2.64
2016-12-18T04:34:07.828Z,2.68
2016-12-18T04:35:07.588Z,2.81
2016-12-18T04:36:07.611Z,2.66
2016-12-18T04:37:07.645Z,2.50
2016-12-18T04:38:07.606Z,2.72
2016-12-18T04:39:08.040Z,2.72
2016-12-18T04:40:08.323Z,2.69
2016-12-18T04:41:08.209Z,2.63
2016-12-18T04:42:08.079Z,2.46
2016-12-18T04:43:07.971Z,2.52
2016-12-18T04:44:07.866Z,2.41
2016-12-18T04:45:07.845Z,2.64
2016-12-18T04:46:07.459Z,2.55
2016-12-18T04:47:07.986Z,2.50
2016-12-18T04:48:07.946Z,2.62
2016-12-18T04:49:07.911Z,2.63
2016-12-18T04:50:07.544Z,2.59
2016-12-18T04:51:07.644Z,2.47
2016-12-18T04:52:07.665Z,2.52
2016-12-18T04:53:07.601Z,2.83
2016-12-18T04:54:07.627Z,2.86
2016-12-18T04:55:07.218Z,2.95
2016-12-18T04:56:08.418Z,2.89
2016-12-18T04:57:08.289Z,2.89
2016-12-18T04:58:08.232Z,2.71
2016-12-18T04:59:08.088Z,2.61
2016-12-18T05:00:07.937Z,2.69
2016-12-18T05:01:07.558Z,2.60
2016-12-18T05:02:07.904Z,2.75
2016-12-18T05:03:07.937Z,2.52
2016-12-18T05:04:07.821Z,2.62
2016-12-18T05:05:07.788Z,2.80
2016-12-18T05:06:08.356Z,2.59
2016-12-18T05:07:07.817Z,2.81
2016-12-18T05:08:07.800Z,2.79
2016-12-18T05:09:07.647Z,2.77
2016-12-18T05:10:07.734Z,2.80
2016-12-18T05:11:07.629Z,2.84
2016-12-18T05:12:07.739Z,2.72
2016-12-18T05:13:07.273Z,2.98
2016-12-18T05:14:08.109Z,3.00
2016-12-18T05:15:07.804Z,3.05
2016-12-18T05:16:07.987Z,2.87
2016-12-18T05:17:08.158Z,2.92
2016-12-18T05:18:08.045Z,2.72
2016-12-18T05:19:08.008Z,2.72
2016-12-18T05:20:07.988Z,2.62
2016-12-18T05:21:08.009Z,2.71
2016-12-18T05:22:08.012Z,2.69
2016-12-18T05:23:07.854Z,2.72
2016-12-18T05:24:07.788Z,2.89
2016-12-18T05:25:10.257Z,2.71
2016-12-18T05:26:07.429Z,2.75
2016-12-18T05:27:07.965Z,2.74
2016-12-18T05:28:07.591Z,2.86
2016-12-18T05:29:07.899Z,2.80
2016-12-18T05:30:07.893Z,2.74
2016-12-18T05:31:07.565Z,2.90
2016-12-18T05:32:08.234Z,3.01
2016-12-18T05:33:08.136Z,2.98
2016-12-18T05:34:07.999Z,2.80
2016-12-18T05:35:07.836Z,2.72
2016-12-18T05:36:07.537Z,2.83
2016-12-18T05:37:07.995Z,2.89
2016-12-18T05:38:07.645Z,2.83
2016-12-18T05:39:08.185Z,2.84
2016-12-18T05:40:07.805Z,2.80
2016-12-18T05:41:08.396Z,2.85
2016-12-18T05:42:07.515Z,2.95
2016-12-18T05:43:09.347Z,2.85
2016-12-18T05:44:07.739Z,2.89
2016-12-18T05:45:07.734Z,2.86
2016-12-18T05:46:07.654Z,2.83
2016-12-18T05:47:08.961Z,2.88
2016-12-18T05:48:07.996Z,2.95
2016-12-18T05:49:08.000Z,2.76
2016-12-18T05:50:08.021Z,2.80
2016-12-18T05:51:07.993Z,2.86
2016-12-18T05:52:07.984Z,2.95
2016-12-18T05:53:07.648Z,2.93
2016-12-18T05:54:07.760Z,2.88
2016-12-18T05:55:07.950Z,2.97
2016-12-18T05:56:08.237Z,2.95
2016-12-18T05:57:08.170Z,2.88
2016-12-18T05:58:07.888Z,2.77
2016-12-18T05:59:07.839Z,2.82
2016-12-18T06:00:07.783Z,2.81
2016-12-18T06:01:07.562Z,2.85
2016-12-18T06:02:08.400Z,2.81
2016-12-18T06:03:08.251Z,2.99
2016-12-18T06:04:07.817Z,2.91
2016-12-18T06:05:08.229Z,3.01
2016-12-18T06:06:08.068Z,3.09
2016-12-18T06:07:08.053Z,3.18
2016-12-18T06:08:08.043Z,2.85
2016-12-18T06:09:07.912Z,2.88
2016-12-18T06:10:07.987Z,2.95
2016-12-18T06:11:07.967Z,2.99
2016-12-18T06:12:07.878Z,3.10
2016-12-18T06:13:07.752Z,3.07
2016-12-18T06:14:07.855Z,3.12
2016-12-18T06:15:07.915Z,3.13
2016-12-18T06:16:08.112Z,3.09
2016-12-18T06:17:07.966Z,3.16
2016-12-18T06:18:08.076Z,3.03
2016-12-18T06:19:07.928Z,3.05
2016-12-18T06:20:07.812Z,3.06
2016-12-18T06:21:07.517Z,3.10
2016-12-18T06:22:08.321Z,3.12
2016-12-18T06:23:08.204Z,3.15
2016-12-18T06:24:08.040Z,3.35
2016-12-18T06:25:07.901Z,3.23
2016-12-18T06:26:07.855Z,3.24
2016-12-18T06:27:07.551Z,3.32
2016-12-18T06:28:08.147Z,3.38
2016-12-18T06:29:08.121Z,3.49
2016-12-18T06:30:08.070Z,3.31
2016-12-18T06:31:08.087Z,3.35
2016-12-18T06:32:08.111Z,3.30
2016-12-18T06:33:07.754Z,3.28
2016-12-18T06:34:07.620Z,3.18
2016-12-18T06:35:07.809Z,3.35
2016-12-18T06:36:07.737Z,3.45
2016-12-18T06:37:07.510Z,3.46
2016-12-18T06:38:08.160Z,3.38
2016-12-18T06:39:08.055Z,3.14
2016-12-18T06:40:07.972Z,3.22
2016-12-18T06:41:07.986Z,3.36
2016-12-18T06:42:07.937Z,3.38
2016-12-18T06:43:07.681Z,3.35
2016-12-18T06:44:07.496Z,3.41
2016-12-18T06:45:07.425Z,3.27
2016-12-18T06:46:07.680Z,3.22
2016-12-18T06:47:07.250Z,3.31
2016-12-18T06:48:08.236Z,3.33
2016-12-18T06:49:08.036Z,3.29
2016-12-18T06:50:08.000Z,3.39
2016-12-18T06:51:08.104Z,3.45
2016-12-18T06:52:08.017Z,3.37
2016-12-18T06:53:08.049Z,3.40
2016-12-18T06:54:08.040Z,3.32
2016-12-18T06:55:08.070Z,3.38
2016-12-18T06:56:07.969Z,3.48
2016-12-18T06:57:07.767Z,3.41
2016-12-18T06:58:07.978Z,3.33
2016-12-18T06:59:07.989Z,3.35
2016-12-18T07:00:07.844Z,3.36
2016-12-18T07:01:07.780Z,3.25
2016-12-18T07:02:07.768Z,3.23
2016-12-18T07:03:07.827Z,3.28
2016-12-18T07:04:07.483Z,3.10
2016-12-18T07:05:07.796Z,3.11
2016-12-18T07:06:07.524Z,3.05
2016-12-18T07:07:07.768Z,3.24
2016-12-18T07:08:07.484Z,3.35
2016-12-18T07:09:07.785Z,3.27
2016-12-18T07:10:07.853Z,3.20
2016-12-18T07:11:07.779Z,3.22
2016-12-18T07:12:07.603Z,3.26
2016-12-18T07:13:08.003Z,3.33
2016-12-18T07:14:08.305Z,3.27
2016-12-18T07:15:08.125Z,3.31
2016-12-18T07:16:08.107Z,3.33
2016-12-18T07:17:08.130Z,3.34
2016-12-18T07:18:08.011Z,3.28
2016-12-18T07:19:08.065Z,3.29
2016-12-18T07:20:08.094Z,3.36
2016-12-18T07:21:08.196Z,3.24
2016-12-18T07:22:08.042Z,3.32
2016-12-18T07:23:07.735Z,3.33
2016-12-18T07:24:07.557Z,3.20
2016-12-18T07:25:07.693Z,3.22
2016-12-18T07:26:08.173Z,3.29
2016-12-18T07:27:08.060Z,3.32
2016-12-18T07:28:08.089Z,3.34
2016-12-18T07:29:08.062Z,3.17
2016-12-18T07:30:08.365Z,3.28
2016-12-18T07:31:08.305Z,3.20
2016-12-18T07:32:07.908Z,3.19
2016-12-18T07:33:08.085Z,3.16
2016-12-18T07:34:08.298Z,3.31
2016-12-18T07:35:07.867Z,3.31
2016-12-18T07:36:07.796Z,3.19
2016-12-18T07:37:07.970Z,3.23
2016-12-18T07:38:07.777Z,2.96
2016-12-18T07:39:07.898Z,3.00
2016-12-18T07:40:07.797Z,3.07
2016-12-18T07:41:07.606Z,3.15
2016-12-18T07:42:07.877Z,2.92
2016-12-18T07:43:07.831Z,3.04
2016-12-18T07:44:07.846Z,3.14
2016-12-18T07:45:07.975Z,3.21
2016-12-18T07:46:08.154Z,3.18
2016-12-18T07:47:07.783Z,2.88
2016-12-18T07:48:08.221Z,3.07
2016-12-18T07:49:08.057Z,3.02
2016-12-18T07:50:08.062Z,2.99
2016-12-18T07:51:08.152Z,3.10
2016-12-18T07:52:08.133Z,3.11
2016-12-18T07:53:07.693Z,3.27
2016-12-18T07:54:07.961Z,3.32
2016-12-18T07:55:07.853Z,3.30
2016-12-18T07:56:07.931Z,3.26
2016-12-18T07:57:08.393Z,3.29
2016-12-18T07:58:08.283Z,3.34
2016-12-18T07:59:08.161Z,3.06
2016-12-18T08:00:08.158Z,3.13
2016-12-18T08:01:08.198Z,3.21
2016-12-18T08:02:08.047Z,3.28
2016-12-18T08:03:08.132Z,3.35
2016-12-18T08:04:08.261Z,3.44
2016-12-18T08:05:08.079Z,3.41
2016-12-18T08:06:07.852Z,3.39
2016-12-18T08:07:07.841Z,3.46
2016-12-18T08:08:07.880Z,3.52
2016-12-18T08:09:07.920Z,3.22
2016-12-18T08:10:07.555Z,3.35
2016-12-18T08:11:07.840Z,3.27
2016-12-18T08:12:07.816Z,3.16
2016-12-18T08:13:07.825Z,3.30
2016-12-18T08:14:07.943Z,3.35
2016-12-18T08:15:07.661Z,3.44
2016-12-18T08:16:07.794Z,3.47
2016-12-18T08:17:08.325Z,3.47
2016-12-18T08:18:08.219Z,3.44
2016-12-18T08:19:08.431Z,3.65
2016-12-18T08:20:08.031Z,3.53
2016-12-18T08:21:07.995Z,3.50
2016-12-18T08:22:07.921Z,3.42
2016-12-18T08:23:07.900Z,3.28
2016-12-18T08:24:07.806Z,3.47
2016-12-18T08:25:08.093Z,3.50
2016-12-18T08:26:08.126Z,3.63
2016-12-18T08:27:08.053Z,3.52
2016-12-18T08:28:07.625Z,3.55
2016-12-18T08:29:07.646Z,3.63
2016-12-18T08:30:07.672Z,3.58
2016-12-18T08:31:07.485Z,3.48
2016-12-18T08:32:08.593Z,3.46
2016-12-18T08:33:08.004Z,3.66
2016-12-18T08:34:07.936Z,3.73
2016-12-18T08:35:08.349Z,3.82
2016-12-18T08:36:08.240Z,3.81
2016-12-18T08:37:08.196Z,3.69
2016-12-18T08:38:08.283Z,3.63
2016-12-18T08:39:07.874Z,3.86
2016-12-18T08:40:07.898Z,3.83
2016-12-18T08:41:07.860Z,3.91
2016-12-18T08:42:07.525Z,3.93
2016-12-18T08:43:07.863Z,3.87
2016-12-18T08:44:07.782Z,3.91
2016-12-18T08:45:07.785Z,3.88
2016-12-18T08:46:07.767Z,4.00
2016-12-18T08:47:07.933Z,3.71
2016-12-18T08:48:07.951Z,3.61
2016-12-18T08:49:08.186Z,3.70
2016-12-18T08:50:08.183Z,3.71
2016-12-18T08:51:08.151Z,3.69
2016-12-18T08:52:07.856Z,3.70
2016-12-18T08:53:07.810Z,3.59
2016-12-18T08:54:07.864Z,3.95
2016-12-18T08:55:07.901Z,3.92
2016-12-18T08:56:07.959Z,4.14
2016-12-18T08:57:07.930Z,4.07
2016-12-18T08:58:07.975Z,3.85
2016-12-18T08:59:08.040Z,3.81
2016-12-18T09:00:07.942Z,4.03
2016-12-18T09:01:07.613Z,3.97
2016-12-18T09:02:08.278Z,4.00
2016-12-18T09:03:08.001Z,4.12
2016-12-18T09:04:08.026Z,3.91
2016-12-18T09:05:08.298Z,4.15
2016-12-18T09:06:08.273Z,4.11
2016-12-18T09:07:08.250Z,4.04
2016-12-18T09:08:09.183Z,4.16
2016-12-18T09:09:07.896Z,4.27
2016-12-18T09:10:07.908Z,4.16
2016-12-18T09:11:08.773Z,4.01
2016-12-18T09:12:07.825Z,3.97
2016-12-18T09:13:07.425Z,3.98
2016-12-18T09:14:07.813Z,4.14
2016-12-18T09:15:07.391Z,4.38
2016-12-18T09:16:08.144Z,4.12
2016-12-18T09:17:08.293Z,4.19
2016-12-18T09:18:08.145Z,4.38
2016-12-18T09:19:08.271Z,4.37
2016-12-18T09:20:08.260Z,4.43
2016-12-18T09:21:08.231Z,4.45
2016-12-18T09:22:08.113Z,4.34
2016-12-18T09:23:08.133Z,4.29
2016-12-18T09:24:07.835Z,4.42
2016-12-18T09:25:07.907Z,4.41
2016-12-18T09:26:07.942Z,4.36
2016-12-18T09:27:07.836Z,4.53
2016-12-18T09:28:07.176Z,4.53
2016-12-18T09:29:08.246Z,4.56
2016-12-18T09:30:08.230Z,4.41
2016-12-18T09:31:09.081Z,4.45
2016-12-18T09:32:07.603Z,4.61
2016-12-18T09:33:07.609Z,4.46
2016-12-18T09:34:07.790Z,4.34
2016-12-18T09:35:07.866Z,4.60
2016-12-18T09:36:07.524Z,4.67
2016-12-18T09:37:07.764Z,4.52
2016-12-18T09:38:08.793Z,4.39
2016-12-18T09:39:08.207Z,4.34
2016-12-18T09:40:08.190Z,4.44
2016-12-18T09:41:07.921Z,4.53
2016-12-18T09:42:07.719Z,4.27
2016-12-18T09:43:07.709Z,4.53
2016-12-18T09:44:07.776Z,4.66
2016-12-18T09:45:07.838Z,4.56
2016-12-18T09:46:07.773Z,4.60
2016-12-18T09:47:07.796Z,4.52
2016-12-18T09:48:08.780Z,4.58
2016-12-18T09:49:11.618Z,4.64
2016-12-18T09:50:08.330Z,4.75
2016-12-18T09:51:08.281Z,4.55
2016-12-18T09:52:08.978Z,4.68
2016-12-18T09:53:08.553Z,4.70
2016-12-18T09:54:09.064Z,4.66
2016-12-18T09:55:08.123Z,4.77
2016-12-18T09:56:08.723Z,4.77
2016-12-18T09:57:08.886Z,4.78
2016-12-18T09:58:08.679Z,4.81
2016-12-18T09:59:07.551Z,4.77
2016-12-18T10:00:08.547Z,4.81
2016-12-18T10:01:08.289Z,4.84
2016-12-18T10:02:07.884Z,4.83
2016-12-18T10:03:08.561Z,4.91
2016-12-18T10:04:07.701Z,4.87
2016-12-18T10:05:08.356Z,4.64
2016-12-18T10:06:13.839Z,4.59
2016-12-18T10:07:07.945Z,4.69
2016-12-18T10:08:13.243Z,4.90
2016-12-18T10:09:08.340Z,4.93
2016-12-18T10:10:09.181Z,5.06
2016-12-18T10:11:15.333Z,5.04
2016-12-18T10:12:08.899Z,5.03
2016-12-18T10:13:13.522Z,5.03
2016-12-18T10:14:07.499Z,5.11
2016-12-18T10:15:11.599Z,5.13
2016-12-18T10:16:08.308Z,4.96
2016-12-18T10:17:13.859Z,5.06
2016-12-18T10:18:08.556Z,5.19
2016-12-18T10:19:08.602Z,5.13
2016-12-18T10:20:07.752Z,5.26
2016-12-18T10:21:07.664Z,5.23
2016-12-18T10:22:14.327Z,5.19
2016-12-18T10:23:08.403Z,5.37
2016-12-18T10:24:08.531Z,5.41
2016-12-18T10:25:08.061Z,5.40
2016-12-18T10:26:08.108Z,5.33
2016-12-18T10:27:08.025Z,5.27
2016-12-18T10:28:08.070Z,5.24
2016-12-18T10:29:08.073Z,5.27
2016-12-18T10:30:08.052Z,5.24
2016-12-18T10:31:08.712Z,5.34
2016-12-18T10:32:07.973Z,5.16
2016-12-18T10:33:07.547Z,5.27
2016-12-18T10:34:08.135Z,5.29
2016-12-18T10:35:07.630Z,5.29
2016-12-18T10:36:08.314Z,5.37
2016-12-18T10:37:07.850Z,5.41
2016-12-18T10:38:07.527Z,5.38
2016-12-18T10:39:08.351Z,5.21
2016-12-18T10:40:08.259Z,5.29
2016-12-18T10:41:08.292Z,5.22
2016-12-18T10:42:08.154Z,5.20
2016-12-18T10:43:07.859Z,5.34
2016-12-18T10:44:07.875Z,5.38
2016-12-18T10:45:07.963Z,5.39
2016-12-18T10:46:16.198Z,5.38
2016-12-18T10:47:07.976Z,5.46
2016-12-18T10:48:07.886Z,5.60
2016-12-18T10:49:07.863Z,5.62
2016-12-18T10:50:07.880Z,5.68
2016-12-18T10:51:07.790Z,5.72
2016-12-18T10:52:07.838Z,5.82
2016-12-18T10:53:07.785Z,5.81
2016-12-18T10:54:07.688Z,5.74
2016-12-18T10:55:07.441Z,5.80
2016-12-18T10:56:07.156Z,5.78
2016-12-18T10:57:08.651Z,5.77
2016-12-18T10:58:07.522Z,5.81
2016-12-18T10:59:08.100Z,5.76
2016-12-18T11:00:07.894Z,5.55
2016-12-18T11:01:07.685Z,5.68
2016-12-18T11:02:07.920Z,5.59
2016-12-18T11:03:07.896Z,5.71
2016-12-18T11:04:08.049Z,5.76
2016-12-18T11:05:08.192Z,5.68
2016-12-18T11:06:08.320Z,5.54
2016-12-18T11:07:08.209Z,5.42
2016-12-18T11:08:08.047Z,5.43
2016-12-18T11:09:08.241Z,5.64
2016-12-18T11:10:09.377Z,5.55
2016-12-18T11:11:07.806Z,5.55
2016-12-18T11:12:07.762Z,5.49
2016-12-18T11:13:07.833Z,5.56
2016-12-18T11:14:07.882Z,5.51
2016-12-18T11:15:07.922Z,5.50
2016-12-18T11:16:07.918Z,5.48
2016-12-18T11:17:08.022Z,5.10
2016-12-18T11:18:07.759Z,5.22
2016-12-18T11:19:08.268Z,5.44
2016-12-18T11:20:07.983Z,5.37
2016-12-18T11:21:07.980Z,5.29
2016-12-18T11:22:07.560Z,5.35
2016-12-18T11:23:09.067Z,5.38
2016-12-18T11:24:13.225Z,5.47
2016-12-18T11:25:08.071Z,5.28
2016-12-18T11:26:08.170Z,5.19
2016-12-18T11:27:08.179Z,5.30
2016-12-18T11:28:08.520Z,5.23
2016-12-18T11:29:08.366Z,5.17
2016-12-18T11:30:08.355Z,5.22
2016-12-18T11:31:08.364Z,5.23
2016-12-18T11:32:08.397Z,5.23
2016-12-18T11:33:08.424Z,5.31
2016-12-18T11:34:08.500Z,5.16
2016-12-18T11:35:08.159Z,5.05
2016-12-18T11:36:08.177Z,5.05
2016-12-18T11:37:08.448Z,4.81
2016-12-18T11:38:08.668Z,5.05
2016-12-18T11:39:07.318Z,5.17
2016-12-18T11:40:08.418Z,5.28
2016-12-18T11:41:08.279Z,5.25
2016-12-18T11:42:08.171Z,5.43
2016-12-18T11:43:07.811Z,5.46
2016-12-18T11:44:08.521Z,5.34
2016-12-18T11:45:08.082Z,5.34
2016-12-18T11:46:08.207Z,5.30
2016-12-18T11:47:08.144Z,5.30
2016-12-18T11:48:08.117Z,5.30
2016-12-18T11:49:08.217Z,5.30
2016-12-18T11:50:08.077Z,5.21
2016-12-18T11:51:08.186Z,5.23
2016-12-18T11:52:08.062Z,5.17
2016-12-18T11:53:07.910Z,5.13
2016-12-18T11:54:07.763Z,5.25
2016-12-18T11:55:08.055Z,5.18
2016-12-18T11:56:07.915Z,5.21
2016-12-18T11:57:08.004Z,5.04
2016-12-18T11:58:07.914Z,4.98
2016-12-18T11:59:07.836Z,5.01
2016-12-18T12:00:08.031Z,5.04
2016-12-18T12:01:07.988Z,5.01
2016-12-18T12:02:07.695Z,5.01
2016-12-18T12:03:07.424Z,5.12
2016-12-18T12:04:08.369Z,5.05
2016-12-18T12:05:08.385Z,5.10
2016-12-18T12:06:08.105Z,5.09
2016-12-18T12:07:07.861Z,5.06
2016-12-18T12:08:07.756Z,5.10
2016-12-18T12:09:07.691Z,5.01
2016-12-18T12:10:07.695Z,5.05
2016-12-18T12:11:07.438Z,4.80
2016-12-18T12:12:08.527Z,4.87
2016-12-18T12:13:08.480Z,4.83
2016-12-18T12:14:08.487Z,4.89
2016-12-18T12:15:08.496Z,4.85
2016-12-18T12:16:08.481Z,4.81
2016-12-18T12:17:08.671Z,4.81
2016-12-18T12:18:07.868Z,4.92
2016-12-18T12:19:07.884Z,4.87
2016-12-18T12:20:07.688Z,4.92
2016-12-18T12:21:08.306Z,4.78
2016-12-18T12:22:08.154Z,4.79
2016-12-18T12:23:08.139Z,4.74
2016-12-18T12:24:08.154Z,4.72
2016-12-18T12:25:08.165Z,4.70
2016-12-18T12:26:07.892Z,4.81
2016-12-18T12:27:08.139Z,4.84
2016-12-18T12:28:08.147Z,4.84
2016-12-18T12:29:08.025Z,4.83
2016-12-18T12:30:07.991Z,4.77
2016-12-18T12:31:08.286Z,4.80
2016-12-18T12:32:08.254Z,4.68
2016-12-18T12:33:08.279Z,4.83
2016-12-18T12:34:08.519Z,4.91
2016-12-18T12:35:08.241Z,4.95
2016-12-18T12:36:08.258Z,5.00
2016-12-18T12:37:08.185Z,4.78
2016-12-18T12:38:08.216Z,4.90
2016-12-18T12:39:09.058Z,4.98
2016-12-18T12:40:17.320Z,4.92
2016-12-18T12:41:07.553Z,4.92
2016-12-18T12:42:08.348Z,4.96
2016-12-18T12:43:08.204Z,5.01
2016-12-18T12:44:08.089Z,5.14
2016-12-18T12:45:08.228Z,5.13
2016-12-18T12:46:08.300Z,5.11
2016-12-18T12:47:08.229Z,5.06
2016-12-18T12:48:08.287Z,5.12
2016-12-18T12:49:08.428Z,5.17
2016-12-18T12:50:08.253Z,5.02
2016-12-18T12:51:08.219Z,5.07
2016-12-18T12:52:08.337Z,5.09
2016-12-18T12:53:08.107Z,5.15
2016-12-18T12:54:07.878Z,4.92
2016-12-18T12:55:08.114Z,5.02
2016-12-18T12:56:08.218Z,4.98
2016-12-18T12:57:08.149Z,5.04
2016-12-18T12:58:08.233Z,5.03
2016-12-18T12:59:08.318Z,5.09
2016-12-18T13:00:07.904Z,4.82
2016-12-18T13:01:07.996Z,4.96
2016-12-18T13:02:08.615Z,4.74
2016-12-18T13:03:07.570Z,4.74
2016-12-18T13:04:08.533Z,4.83
2016-12-18T13:05:07.997Z,4.90
2016-12-18T13:06:08.027Z,4.87
2016-12-18T13:07:07.973Z,4.86
2016-12-18T13:08:08.093Z,4.88
2016-12-18T13:09:08.128Z,4.80
2016-12-18T13:10:08.093Z,4.72
2016-12-18T13:11:08.093Z,4.81
2016-12-18T13:12:08.189Z,4.77
2016-12-18T13:13:08.267Z,4.84
2016-12-18T13:14:08.335Z,4.92
2016-12-18T13:15:08.235Z,4.86
2016-12-18T13:16:08.257Z,4.79
2016-12-18T13:17:08.309Z,4.77
2016-12-18T13:18:08.145Z,4.90